sensor_id;sensor_type;location;lat;lon;timestamp;P1;durP1;ratioP1;P2;durP2;ratioP2
19049;SDS011;9657;45.940;12.840;2023-04-01T00:01:45;3.83;;;3.40;;
19049;SDS011;9657;45.940;12.840;2023-04-01T00:04:12;4.20;;;3.20;;
19049;SDS011;9657;45.940;12.840;2023-04-01T00:06:40;5.80;;;3.40;;
19049;SDS011;9657;45.940;12.840;2023-04-01T00:09:07;6.07;;;3.10;;
19049;SDS011;9657;45.940;12.840;2023-04-01T00:11:34;6.67;;;3.40;;
19049;SDS011;9657;45.940;12.840;2023-04-01T00:14:01;3.23;;;2.87;;
19049;SDS011;9657;45.940;12.840;2023-04-01T00:16:30;3.73;;;3.27;;
19049;SDS011;9657;45.940;12.840;2023-04-01T00:18:57;3.63;;;3.30;;
19049;SDS011;9657;45.940;12.840;2023-04-01T00:21:24;3.30;;;3.00;;
19049;SDS011;9657;45.940;12.840;2023-04-01T00:23:51;3.60;;;3.30;;
19049;SDS011;9657;45.940;12.840;2023-04-01T00:26:19;4.00;;;3.30;;
19049;SDS011;9657;45.940;12.840;2023-04-01T00:28:46;3.97;;;3.07;;
19049;SDS011;9657;45.940;12.840;2023-04-01T00:31:14;4.70;;;2.73;;
19049;SDS011;9657;45.940;12.840;2023-04-01T00:33:42;5.07;;;3.47;;
19049;SDS011;9657;45.940;12.840;2023-04-01T00:36:10;3.73;;;2.93;;
19049;SDS011;9657;45.940;12.840;2023-04-01T00:38:38;3.27;;;2.97;;
19049;SDS011;9657;45.940;12.840;2023-04-01T00:41:06;3.47;;;3.17;;
19049;SDS011;9657;45.940;12.840;2023-04-01T00:43:35;4.80;;;2.70;;
19049;SDS011;9657;45.940;12.840;2023-04-01T00:46:02;3.63;;;2.70;;
19049;SDS011;9657;45.940;12.840;2023-04-01T00:48:30;3.87;;;3.00;;
19049;SDS011;9657;45.940;12.840;2023-04-01T00:51:02;2.73;;;2.53;;
19049;SDS011;9657;45.940;12.840;2023-04-01T00:53:31;3.00;;;2.70;;
19049;SDS011;9657;45.940;12.840;2023-04-01T00:56:01;4.87;;;3.10;;
19049;SDS011;9657;45.940;12.840;2023-04-01T00:58:32;3.30;;;3.00;;
19049;SDS011;9657;45.940;12.840;2023-04-01T01:03:40;3.40;;;2.50;;
19049;SDS011;9657;45.940;12.840;2023-04-01T01:06:10;2.87;;;2.60;;
19049;SDS011;9657;45.940;12.840;2023-04-01T01:08:52;3.80;;;2.70;;
19049;SDS011;9657;45.940;12.840;2023-04-01T01:11:33;3.30;;;2.77;;
19049;SDS011;9657;45.940;12.840;2023-04-01T01:14:08;3.27;;;2.57;;
19049;SDS011;9657;45.940;12.840;2023-04-01T01:16:47;3.03;;;2.67;;
19049;SDS011;9657;45.940;12.840;2023-04-01T01:19:26;3.17;;;2.60;;
19049;SDS011;9657;45.940;12.840;2023-04-01T01:22:23;3.73;;;2.83;;
19049;SDS011;9657;45.940;12.840;2023-04-01T01:25:14;4.77;;;2.80;;
19049;SDS011;9657;45.940;12.840;2023-04-01T01:27:49;2.70;;;2.30;;
19049;SDS011;9657;45.940;12.840;2023-04-01T01:30:26;3.77;;;2.47;;
19049;SDS011;9657;45.940;12.840;2023-04-01T01:33:06;3.33;;;2.80;;
19049;SDS011;9657;45.940;12.840;2023-04-01T01:35:43;4.57;;;2.63;;
19049;SDS011;9657;45.940;12.840;2023-04-01T01:38:13;4.40;;;2.77;;
19049;SDS011;9657;45.940;12.840;2023-04-01T01:40:43;3.60;;;2.50;;
19049;SDS011;9657;45.940;12.840;2023-04-01T01:43:14;3.97;;;2.73;;
19049;SDS011;9657;45.940;12.840;2023-04-01T01:45:44;2.60;;;2.40;;
19049;SDS011;9657;45.940;12.840;2023-04-01T01:48:14;4.20;;;2.60;;
19049;SDS011;9657;45.940;12.840;2023-04-01T01:50:44;3.33;;;2.70;;
19049;SDS011;9657;45.940;12.840;2023-04-01T01:53:13;3.90;;;2.33;;
19049;SDS011;9657;45.940;12.840;2023-04-01T01:55:41;3.60;;;3.13;;
19049;SDS011;9657;45.940;12.840;2023-04-01T01:58:11;2.87;;;2.57;;
19049;SDS011;9657;45.940;12.840;2023-04-01T02:00:43;3.30;;;2.60;;
19049;SDS011;9657;45.940;12.840;2023-04-01T02:03:12;4.23;;;2.70;;
19049;SDS011;9657;45.940;12.840;2023-04-01T02:05:41;4.10;;;2.87;;
19049;SDS011;9657;45.940;12.840;2023-04-01T02:08:11;2.70;;;2.50;;
19049;SDS011;9657;45.940;12.840;2023-04-01T02:10:42;2.50;;;1.90;;
19049;SDS011;9657;45.940;12.840;2023-04-01T02:13:14;3.00;;;2.27;;
19049;SDS011;9657;45.940;12.840;2023-04-01T02:15:45;3.83;;;2.33;;
19049;SDS011;9657;45.940;12.840;2023-04-01T02:18:15;3.80;;;2.40;;
19049;SDS011;9657;45.940;12.840;2023-04-01T02:20:45;3.53;;;2.33;;
19049;SDS011;9657;45.940;12.840;2023-04-01T02:23:13;3.33;;;2.43;;
19049;SDS011;9657;45.940;12.840;2023-04-01T02:25:40;3.30;;;2.50;;
19049;SDS011;9657;45.940;12.840;2023-04-01T02:28:09;2.90;;;2.23;;
19049;SDS011;9657;45.940;12.840;2023-04-01T02:30:39;2.63;;;1.90;;
19049;SDS011;9657;45.940;12.840;2023-04-01T02:33:08;2.93;;;2.40;;
19049;SDS011;9657;45.940;12.840;2023-04-01T02:35:36;2.57;;;2.17;;
19049;SDS011;9657;45.940;12.840;2023-04-01T02:38:03;2.73;;;2.40;;
19049;SDS011;9657;45.940;12.840;2023-04-01T02:40:42;2.40;;;2.13;;
19049;SDS011;9657;45.940;12.840;2023-04-01T02:43:11;3.93;;;2.40;;
19049;SDS011;9657;45.940;12.840;2023-04-01T02:45:38;3.03;;;2.07;;
19049;SDS011;9657;45.940;12.840;2023-04-01T02:48:05;2.47;;;2.00;;
19049;SDS011;9657;45.940;12.840;2023-04-01T02:50:32;2.50;;;2.23;;
19049;SDS011;9657;45.940;12.840;2023-04-01T02:52:59;2.97;;;2.13;;
19049;SDS011;9657;45.940;12.840;2023-04-01T02:55:28;3.83;;;2.10;;
19049;SDS011;9657;45.940;12.840;2023-04-01T02:57:56;3.60;;;2.20;;
19049;SDS011;9657;45.940;12.840;2023-04-01T03:00:23;3.03;;;1.87;;
19049;SDS011;9657;45.940;12.840;2023-04-01T03:02:50;4.57;;;2.23;;
19049;SDS011;9657;45.940;12.840;2023-04-01T03:05:17;2.70;;;2.40;;
19049;SDS011;9657;45.940;12.840;2023-04-01T03:07:45;2.87;;;2.33;;
19049;SDS011;9657;45.940;12.840;2023-04-01T03:10:12;2.10;;;1.90;;
19049;SDS011;9657;45.940;12.840;2023-04-01T03:12:39;3.37;;;2.00;;
19049;SDS011;9657;45.940;12.840;2023-04-01T03:15:08;3.50;;;2.20;;
19049;SDS011;9657;45.940;12.840;2023-04-01T03:17:38;3.10;;;2.07;;
19049;SDS011;9657;45.940;12.840;2023-04-01T03:20:06;2.07;;;1.73;;
19049;SDS011;9657;45.940;12.840;2023-04-01T03:22:36;2.80;;;2.00;;
19049;SDS011;9657;45.940;12.840;2023-04-01T03:25:03;3.57;;;2.00;;
19049;SDS011;9657;45.940;12.840;2023-04-01T03:27:32;4.67;;;2.03;;
19049;SDS011;9657;45.940;12.840;2023-04-01T03:30:00;3.33;;;2.27;;
19049;SDS011;9657;45.940;12.840;2023-04-01T03:32:28;2.23;;;2.03;;
19049;SDS011;9657;45.940;12.840;2023-04-01T03:34:55;3.47;;;2.23;;
19049;SDS011;9657;45.940;12.840;2023-04-01T03:37:22;4.00;;;2.00;;
19049;SDS011;9657;45.940;12.840;2023-04-01T03:39:50;1.97;;;1.50;;
19049;SDS011;9657;45.940;12.840;2023-04-01T03:42:17;3.67;;;2.10;;
19049;SDS011;9657;45.940;12.840;2023-04-01T03:44:44;3.37;;;2.00;;
19049;SDS011;9657;45.940;12.840;2023-04-01T03:47:11;2.50;;;1.97;;
19049;SDS011;9657;45.940;12.840;2023-04-01T03:49:39;4.73;;;2.30;;
19049;SDS011;9657;45.940;12.840;2023-04-01T03:52:08;3.17;;;2.10;;
19049;SDS011;9657;45.940;12.840;2023-04-01T03:54:36;3.73;;;2.10;;
19049;SDS011;9657;45.940;12.840;2023-04-01T03:57:03;2.50;;;2.03;;
19049;SDS011;9657;45.940;12.840;2023-04-01T03:59:31;3.33;;;2.57;;
19049;SDS011;9657;45.940;12.840;2023-04-01T04:01:58;2.60;;;1.90;;
19049;SDS011;9657;45.940;12.840;2023-04-01T04:04:25;3.97;;;2.40;;
19049;SDS011;9657;45.940;12.840;2023-04-01T04:06:55;3.37;;;2.30;;
19049;SDS011;9657;45.940;12.840;2023-04-01T04:09:22;2.87;;;1.97;;
19049;SDS011;9657;45.940;12.840;2023-04-01T04:11:49;3.03;;;2.10;;
19049;SDS011;9657;45.940;12.840;2023-04-01T04:14:16;4.50;;;2.10;;
19049;SDS011;9657;45.940;12.840;2023-04-01T04:16:43;2.50;;;2.07;;
19049;SDS011;9657;45.940;12.840;2023-04-01T04:19:10;3.17;;;2.00;;
19049;SDS011;9657;45.940;12.840;2023-04-01T04:21:38;3.23;;;2.00;;
19049;SDS011;9657;45.940;12.840;2023-04-01T04:24:07;1.90;;;1.67;;
19049;SDS011;9657;45.940;12.840;2023-04-01T04:26:34;2.00;;;1.90;;
19049;SDS011;9657;45.940;12.840;2023-04-01T04:29:02;2.87;;;1.87;;
19049;SDS011;9657;45.940;12.840;2023-04-01T04:31:29;3.80;;;2.10;;
19049;SDS011;9657;45.940;12.840;2023-04-01T04:33:58;3.10;;;1.93;;
19049;SDS011;9657;45.940;12.840;2023-04-01T04:36:25;2.53;;;2.03;;
19049;SDS011;9657;45.940;12.840;2023-04-01T04:38:52;2.30;;;2.07;;
19049;SDS011;9657;45.940;12.840;2023-04-01T04:41:21;1.90;;;1.63;;
19049;SDS011;9657;45.940;12.840;2023-04-01T04:43:51;4.03;;;1.90;;
19049;SDS011;9657;45.940;12.840;2023-04-01T04:46:20;2.70;;;1.87;;
19049;SDS011;9657;45.940;12.840;2023-04-01T04:48:48;4.73;;;2.30;;
19049;SDS011;9657;45.940;12.840;2023-04-01T04:51:15;3.30;;;2.10;;
19049;SDS011;9657;45.940;12.840;2023-04-01T04:53:44;3.27;;;1.90;;
19049;SDS011;9657;45.940;12.840;2023-04-01T04:56:12;4.00;;;1.97;;
19049;SDS011;9657;45.940;12.840;2023-04-01T04:58:44;3.77;;;2.33;;
19049;SDS011;9657;45.940;12.840;2023-04-01T05:01:12;2.93;;;2.33;;
19049;SDS011;9657;45.940;12.840;2023-04-01T05:03:40;2.77;;;1.97;;
19049;SDS011;9657;45.940;12.840;2023-04-01T05:06:08;2.53;;;2.00;;
19049;SDS011;9657;45.940;12.840;2023-04-01T05:08:36;2.40;;;1.83;;
19049;SDS011;9657;45.940;12.840;2023-04-01T05:11:06;3.47;;;2.07;;
19049;SDS011;9657;45.940;12.840;2023-04-01T05:13:34;4.00;;;2.03;;
19049;SDS011;9657;45.940;12.840;2023-04-01T05:16:03;2.77;;;2.00;;
19049;SDS011;9657;45.940;12.840;2023-04-01T05:18:33;2.97;;;1.90;;
19049;SDS011;9657;45.940;12.840;2023-04-01T05:21:00;3.00;;;2.00;;
19049;SDS011;9657;45.940;12.840;2023-04-01T05:23:27;4.57;;;2.00;;
19049;SDS011;9657;45.940;12.840;2023-04-01T05:25:55;2.83;;;2.20;;
19049;SDS011;9657;45.940;12.840;2023-04-01T05:28:22;2.57;;;1.90;;
19049;SDS011;9657;45.940;12.840;2023-04-01T05:30:49;2.20;;;1.80;;
19049;SDS011;9657;45.940;12.840;2023-04-01T05:33:17;2.43;;;2.00;;
19049;SDS011;9657;45.940;12.840;2023-04-01T05:35:44;3.70;;;2.50;;
19049;SDS011;9657;45.940;12.840;2023-04-01T05:38:11;2.93;;;1.90;;
19049;SDS011;9657;45.940;12.840;2023-04-01T05:40:38;3.57;;;2.10;;
19049;SDS011;9657;45.940;12.840;2023-04-01T05:43:05;2.93;;;2.10;;
19049;SDS011;9657;45.940;12.840;2023-04-01T05:45:32;3.33;;;2.00;;
19049;SDS011;9657;45.940;12.840;2023-04-01T05:48:00;2.33;;;2.07;;
19049;SDS011;9657;45.940;12.840;2023-04-01T05:50:29;2.80;;;1.80;;
19049;SDS011;9657;45.940;12.840;2023-04-01T05:52:56;2.33;;;2.13;;
19049;SDS011;9657;45.940;12.840;2023-04-01T05:55:23;2.67;;;1.83;;
19049;SDS011;9657;45.940;12.840;2023-04-01T05:57:50;1.67;;;1.57;;
19049;SDS011;9657;45.940;12.840;2023-04-01T06:00:17;2.03;;;1.83;;
19049;SDS011;9657;45.940;12.840;2023-04-01T06:02:45;3.40;;;1.90;;
19049;SDS011;9657;45.940;12.840;2023-04-01T06:05:14;2.50;;;2.00;;
19049;SDS011;9657;45.940;12.840;2023-04-01T06:07:45;3.47;;;1.87;;
19049;SDS011;9657;45.940;12.840;2023-04-01T06:10:13;2.37;;;1.70;;
19049;SDS011;9657;45.940;12.840;2023-04-01T06:12:47;2.23;;;2.03;;
19049;SDS011;9657;45.940;12.840;2023-04-01T06:15:25;2.60;;;1.83;;
19049;SDS011;9657;45.940;12.840;2023-04-01T06:18:03;3.83;;;1.83;;
19049;SDS011;9657;45.940;12.840;2023-04-01T06:20:57;2.33;;;1.80;;
19049;SDS011;9657;45.940;12.840;2023-04-01T06:23:35;1.93;;;1.73;;
19049;SDS011;9657;45.940;12.840;2023-04-01T06:26:14;2.70;;;2.00;;
19049;SDS011;9657;45.940;12.840;2023-04-01T06:28:57;3.63;;;2.10;;
19049;SDS011;9657;45.940;12.840;2023-04-01T06:32:01;2.27;;;1.70;;
19049;SDS011;9657;45.940;12.840;2023-04-01T06:34:52;3.30;;;2.00;;
19049;SDS011;9657;45.940;12.840;2023-04-01T06:37:33;3.70;;;1.67;;
19049;SDS011;9657;45.940;12.840;2023-04-01T06:40:31;4.17;;;2.03;;
19049;SDS011;9657;45.940;12.840;2023-04-01T06:43:13;3.23;;;2.00;;
19049;SDS011;9657;45.940;12.840;2023-04-01T06:45:48;2.70;;;1.97;;
19049;SDS011;9657;45.940;12.840;2023-04-01T06:48:27;2.10;;;1.70;;
19049;SDS011;9657;45.940;12.840;2023-04-01T06:51:07;3.30;;;2.10;;
19049;SDS011;9657;45.940;12.840;2023-04-01T06:53:47;2.17;;;1.83;;
19049;SDS011;9657;45.940;12.840;2023-04-01T06:56:22;2.20;;;1.57;;
19049;SDS011;9657;45.940;12.840;2023-04-01T06:58:53;2.47;;;2.13;;
19049;SDS011;9657;45.940;12.840;2023-04-01T07:01:24;2.23;;;1.67;;
19049;SDS011;9657;45.940;12.840;2023-04-01T07:03:55;2.67;;;1.70;;
19049;SDS011;9657;45.940;12.840;2023-04-01T07:06:26;4.33;;;2.30;;
19049;SDS011;9657;45.940;12.840;2023-04-01T07:08:57;4.33;;;2.50;;
19049;SDS011;9657;45.940;12.840;2023-04-01T07:11:31;2.00;;;1.80;;
19049;SDS011;9657;45.940;12.840;2023-04-01T07:14:01;2.77;;;1.90;;
19049;SDS011;9657;45.940;12.840;2023-04-01T07:16:33;2.10;;;1.93;;
19049;SDS011;9657;45.940;12.840;2023-04-01T07:19:05;2.07;;;1.90;;
19049;SDS011;9657;45.940;12.840;2023-04-01T07:21:40;3.33;;;1.53;;
19049;SDS011;9657;45.940;12.840;2023-04-01T07:24:13;2.00;;;1.80;;
19049;SDS011;9657;45.940;12.840;2023-04-01T07:26:45;2.30;;;2.03;;
19049;SDS011;9657;45.940;12.840;2023-04-01T07:29:14;3.20;;;1.90;;
19049;SDS011;9657;45.940;12.840;2023-04-01T07:31:45;3.50;;;2.33;;
19049;SDS011;9657;45.940;12.840;2023-04-01T07:34:31;2.23;;;1.90;;
19049;SDS011;9657;45.940;12.840;2023-04-01T07:37:07;2.47;;;2.03;;
19049;SDS011;9657;45.940;12.840;2023-04-01T07:39:40;2.17;;;1.97;;
19049;SDS011;9657;45.940;12.840;2023-04-01T07:42:18;2.87;;;2.00;;
19049;SDS011;9657;45.940;12.840;2023-04-01T07:44:51;2.37;;;1.87;;
19049;SDS011;9657;45.940;12.840;2023-04-01T07:47:34;2.37;;;2.00;;
19049;SDS011;9657;45.940;12.840;2023-04-01T07:50:13;3.90;;;1.60;;
19049;SDS011;9657;45.940;12.840;2023-04-01T07:52:50;3.53;;;1.87;;
19049;SDS011;9657;45.940;12.840;2023-04-01T07:55:26;2.50;;;1.97;;
19049;SDS011;9657;45.940;12.840;2023-04-01T07:58:01;2.00;;;1.80;;
19049;SDS011;9657;45.940;12.840;2023-04-01T08:00:36;1.90;;;1.70;;
19049;SDS011;9657;45.940;12.840;2023-04-01T08:03:20;3.27;;;2.03;;
19049;SDS011;9657;45.940;12.840;2023-04-01T08:05:55;2.60;;;1.87;;
19049;SDS011;9657;45.940;12.840;2023-04-01T08:08:28;2.60;;;1.80;;
19049;SDS011;9657;45.940;12.840;2023-04-01T08:11:04;2.77;;;1.70;;
19049;SDS011;9657;45.940;12.840;2023-04-01T08:13:42;3.67;;;2.07;;
19049;SDS011;9657;45.940;12.840;2023-04-01T08:16:18;2.03;;;1.83;;
19049;SDS011;9657;45.940;12.840;2023-04-01T08:18:52;2.87;;;2.03;;
19049;SDS011;9657;45.940;12.840;2023-04-01T08:21:27;2.00;;;1.67;;
19049;SDS011;9657;45.940;12.840;2023-04-01T08:23:57;2.17;;;1.93;;
19049;SDS011;9657;45.940;12.840;2023-04-01T08:26:32;2.47;;;1.97;;
19049;SDS011;9657;45.940;12.840;2023-04-01T08:29:07;2.73;;;1.87;;
19049;SDS011;9657;45.940;12.840;2023-04-01T08:31:39;2.53;;;2.00;;
19049;SDS011;9657;45.940;12.840;2023-04-01T08:34:13;2.87;;;1.57;;
19049;SDS011;9657;45.940;12.840;2023-04-01T08:36:43;2.10;;;1.90;;
19049;SDS011;9657;45.940;12.840;2023-04-01T08:39:15;1.70;;;1.40;;
19049;SDS011;9657;45.940;12.840;2023-04-01T08:45:01;3.00;;;1.93;;
19049;SDS011;9657;45.940;12.840;2023-04-01T08:47:52;2.07;;;1.77;;
19049;SDS011;9657;45.940;12.840;2023-04-01T08:53:35;2.23;;;2.00;;
19049;SDS011;9657;45.940;12.840;2023-04-01T08:56:14;2.23;;;1.77;;
19049;SDS011;9657;45.940;12.840;2023-04-01T09:02:00;2.70;;;1.90;;
19049;SDS011;9657;45.940;12.840;2023-04-01T09:07:49;1.67;;;1.50;;
19049;SDS011;9657;45.940;12.840;2023-04-01T09:13:43;3.33;;;1.97;;
19049;SDS011;9657;45.940;12.840;2023-04-01T09:16:29;2.67;;;1.80;;
19049;SDS011;9657;45.940;12.840;2023-04-01T09:19:19;1.93;;;1.77;;
19049;SDS011;9657;45.940;12.840;2023-04-01T09:22:04;2.37;;;1.60;;
19049;SDS011;9657;45.940;12.840;2023-04-01T09:24:47;2.33;;;2.00;;
19049;SDS011;9657;45.940;12.840;2023-04-01T09:27:43;2.13;;;1.87;;
19049;SDS011;9657;45.940;12.840;2023-04-01T09:30:27;2.33;;;1.67;;
19049;SDS011;9657;45.940;12.840;2023-04-01T09:33:12;3.13;;;1.80;;
19049;SDS011;9657;45.940;12.840;2023-04-01T09:36:17;2.60;;;2.10;;
19049;SDS011;9657;45.940;12.840;2023-04-01T09:38:57;2.67;;;2.13;;
19049;SDS011;9657;45.940;12.840;2023-04-01T09:41:30;2.10;;;1.90;;
19049;SDS011;9657;45.940;12.840;2023-04-01T09:44:02;2.77;;;2.03;;
19049;SDS011;9657;45.940;12.840;2023-04-01T09:46:36;4.20;;;2.03;;
19049;SDS011;9657;45.940;12.840;2023-04-01T09:49:18;3.27;;;2.03;;
19049;SDS011;9657;45.940;12.840;2023-04-01T09:52:18;3.00;;;2.20;;
19049;SDS011;9657;45.940;12.840;2023-04-01T09:55:00;2.13;;;1.90;;
19049;SDS011;9657;45.940;12.840;2023-04-01T10:04:17;1.90;;;1.57;;
19049;SDS011;9657;45.940;12.840;2023-04-01T10:07:08;2.10;;;1.80;;
19049;SDS011;9657;45.940;12.840;2023-04-01T10:13:30;2.80;;;1.80;;
19049;SDS011;9657;45.940;12.840;2023-04-01T10:19:39;2.37;;;1.90;;
19049;SDS011;9657;45.940;12.840;2023-04-01T10:22:39;2.70;;;1.97;;
19049;SDS011;9657;45.940;12.840;2023-04-01T10:25:29;1.60;;;1.50;;
19049;SDS011;9657;45.940;12.840;2023-04-01T10:34:28;2.33;;;1.50;;
19049;SDS011;9657;45.940;12.840;2023-04-01T10:37:15;2.73;;;1.80;;
19049;SDS011;9657;45.940;12.840;2023-04-01T10:46:15;3.17;;;1.90;;
19049;SDS011;9657;45.940;12.840;2023-04-01T10:49:10;1.77;;;1.40;;
19049;SDS011;9657;45.940;12.840;2023-04-01T10:52:20;1.90;;;1.70;;
19049;SDS011;9657;45.940;12.840;2023-04-01T10:55:24;2.50;;;1.57;;
19049;SDS011;9657;45.940;12.840;2023-04-01T10:58:31;2.57;;;1.73;;
19049;SDS011;9657;45.940;12.840;2023-04-01T11:01:32;2.63;;;1.97;;
19049;SDS011;9657;45.940;12.840;2023-04-01T11:04:38;2.70;;;1.53;;
19049;SDS011;9657;45.940;12.840;2023-04-01T11:10:56;3.23;;;1.93;;
19049;SDS011;9657;45.940;12.840;2023-04-01T11:17:15;3.17;;;1.73;;
19049;SDS011;9657;45.940;12.840;2023-04-01T11:23:28;3.97;;;1.70;;
19049;SDS011;9657;45.940;12.840;2023-04-01T11:26:17;1.73;;;1.30;;
19049;SDS011;9657;45.940;12.840;2023-04-01T11:29:03;2.17;;;1.63;;
19049;SDS011;9657;45.940;12.840;2023-04-01T11:31:46;2.30;;;1.90;;
19049;SDS011;9657;45.940;12.840;2023-04-01T11:34:27;3.53;;;1.60;;
19049;SDS011;9657;45.940;12.840;2023-04-01T11:37:10;2.00;;;1.70;;
19049;SDS011;9657;45.940;12.840;2023-04-01T11:39:46;2.57;;;1.40;;
19049;SDS011;9657;45.940;12.840;2023-04-01T11:42:24;1.90;;;1.50;;
19049;SDS011;9657;45.940;12.840;2023-04-01T11:45:04;3.47;;;1.60;;
19049;SDS011;9657;45.940;12.840;2023-04-01T11:47:52;3.93;;;1.70;;
19049;SDS011;9657;45.940;12.840;2023-04-01T11:50:31;2.20;;;1.50;;
19049;SDS011;9657;45.940;12.840;2023-04-01T11:53:13;3.03;;;1.77;;
19049;SDS011;9657;45.940;12.840;2023-04-01T11:55:57;5.53;;;1.63;;
19049;SDS011;9657;45.940;12.840;2023-04-01T11:58:40;3.47;;;2.30;;
19049;SDS011;9657;45.940;12.840;2023-04-01T12:01:18;6.30;;;1.83;;
19049;SDS011;9657;45.940;12.840;2023-04-01T12:03:56;3.67;;;1.63;;
19049;SDS011;9657;45.940;12.840;2023-04-01T12:06:38;2.40;;;1.60;;
19049;SDS011;9657;45.940;12.840;2023-04-01T12:09:13;3.97;;;1.90;;
19049;SDS011;9657;45.940;12.840;2023-04-01T12:11:49;1.90;;;1.57;;
19049;SDS011;9657;45.940;12.840;2023-04-01T12:14:27;2.87;;;1.93;;
19049;SDS011;9657;45.940;12.840;2023-04-01T12:17:03;4.47;;;1.90;;
19049;SDS011;9657;45.940;12.840;2023-04-01T12:19:40;4.07;;;1.93;;
19049;SDS011;9657;45.940;12.840;2023-04-01T12:22:20;4.23;;;1.83;;
19049;SDS011;9657;45.940;12.840;2023-04-01T12:24:58;5.33;;;1.90;;
19049;SDS011;9657;45.940;12.840;2023-04-01T12:27:41;4.07;;;2.00;;
19049;SDS011;9657;45.940;12.840;2023-04-01T12:30:30;2.83;;;1.80;;
19049;SDS011;9657;45.940;12.840;2023-04-01T12:33:16;2.10;;;1.80;;
19049;SDS011;9657;45.940;12.840;2023-04-01T12:36:18;3.33;;;1.70;;
19049;SDS011;9657;45.940;12.840;2023-04-01T12:38:58;2.53;;;1.50;;
19049;SDS011;9657;45.940;12.840;2023-04-01T12:41:45;1.87;;;1.70;;
19049;SDS011;9657;45.940;12.840;2023-04-01T12:44:28;6.27;;;1.70;;
19049;SDS011;9657;45.940;12.840;2023-04-01T12:50:26;2.37;;;1.87;;
19049;SDS011;9657;45.940;12.840;2023-04-01T12:53:09;2.50;;;1.43;;
19049;SDS011;9657;45.940;12.840;2023-04-01T12:55:59;2.40;;;1.80;;
19049;SDS011;9657;45.940;12.840;2023-04-01T13:01:45;2.70;;;1.70;;
19049;SDS011;9657;45.940;12.840;2023-04-01T13:07:52;2.23;;;1.40;;
19049;SDS011;9657;45.940;12.840;2023-04-01T13:10:27;4.03;;;1.50;;
19049;SDS011;9657;45.940;12.840;2023-04-01T13:13:12;4.63;;;2.00;;
19049;SDS011;9657;45.940;12.840;2023-04-01T13:15:51;2.87;;;1.33;;
19049;SDS011;9657;45.940;12.840;2023-04-01T13:18:23;2.77;;;1.50;;
19049;SDS011;9657;45.940;12.840;2023-04-01T13:21:02;4.67;;;1.80;;
19049;SDS011;9657;45.940;12.840;2023-04-01T13:23:37;2.40;;;1.70;;
19049;SDS011;9657;45.940;12.840;2023-04-01T13:26:13;2.53;;;1.57;;
19049;SDS011;9657;45.940;12.840;2023-04-01T13:28:50;1.93;;;1.53;;
19049;SDS011;9657;45.940;12.840;2023-04-01T13:31:27;3.10;;;1.70;;
19049;SDS011;9657;45.940;12.840;2023-04-01T13:34:09;4.80;;;1.83;;
19049;SDS011;9657;45.940;12.840;2023-04-01T13:36:53;2.93;;;2.20;;
19049;SDS011;9657;45.940;12.840;2023-04-01T13:39:37;1.93;;;1.40;;
19049;SDS011;9657;45.940;12.840;2023-04-01T13:42:16;1.87;;;1.60;;
19049;SDS011;9657;45.940;12.840;2023-04-01T13:44:51;2.73;;;1.70;;
19049;SDS011;9657;45.940;12.840;2023-04-01T13:47:47;1.87;;;1.27;;
19049;SDS011;9657;45.940;12.840;2023-04-01T13:50:55;7.30;;;1.63;;
19049;SDS011;9657;45.940;12.840;2023-04-01T13:53:41;3.10;;;1.50;;
19049;SDS011;9657;45.940;12.840;2023-04-01T13:56:33;2.13;;;1.20;;
19049;SDS011;9657;45.940;12.840;2023-04-01T13:59:08;5.33;;;2.03;;
19049;SDS011;9657;45.940;12.840;2023-04-01T14:01:52;1.67;;;1.30;;
19049;SDS011;9657;45.940;12.840;2023-04-01T14:04:32;2.37;;;1.80;;
19049;SDS011;9657;45.940;12.840;2023-04-01T14:07:16;4.10;;;1.90;;
19049;SDS011;9657;45.940;12.840;2023-04-01T14:09:57;4.43;;;2.40;;
19049;SDS011;9657;45.940;12.840;2023-04-01T14:12:32;5.73;;;2.73;;
19049;SDS011;9657;45.940;12.840;2023-04-01T14:18:03;4.80;;;2.77;;
19049;SDS011;9657;45.940;12.840;2023-04-01T14:20:49;3.77;;;3.23;;
19049;SDS011;9657;45.940;12.840;2023-04-01T14:26:28;3.43;;;2.93;;
19049;SDS011;9657;45.940;12.840;2023-04-01T14:29:23;5.50;;;3.87;;
19049;SDS011;9657;45.940;12.840;2023-04-01T14:32:02;4.27;;;3.70;;
19049;SDS011;9657;45.940;12.840;2023-04-01T14:34:41;5.57;;;3.90;;
19049;SDS011;9657;45.940;12.840;2023-04-01T14:37:27;5.30;;;3.90;;
19049;SDS011;9657;45.940;12.840;2023-04-01T14:40:20;5.33;;;3.93;;
19049;SDS011;9657;45.940;12.840;2023-04-01T14:42:58;4.43;;;3.67;;
19049;SDS011;9657;45.940;12.840;2023-04-01T14:48:53;5.03;;;3.70;;
19049;SDS011;9657;45.940;12.840;2023-04-01T14:51:28;4.50;;;4.07;;
19049;SDS011;9657;45.940;12.840;2023-04-01T14:54:04;4.90;;;3.53;;
19049;SDS011;9657;45.940;12.840;2023-04-01T14:56:40;3.50;;;3.20;;
19049;SDS011;9657;45.940;12.840;2023-04-01T14:59:13;4.83;;;3.27;;
19049;SDS011;9657;45.940;12.840;2023-04-01T15:01:46;6.03;;;3.10;;
19049;SDS011;9657;45.940;12.840;2023-04-01T15:04:22;3.97;;;3.57;;
19049;SDS011;9657;45.940;12.840;2023-04-01T15:07:18;5.63;;;3.57;;
19049;SDS011;9657;45.940;12.840;2023-04-01T15:10:18;3.13;;;2.60;;
19049;SDS011;9657;45.940;12.840;2023-04-01T15:13:05;3.77;;;3.33;;
19049;SDS011;9657;45.940;12.840;2023-04-01T15:15:46;3.30;;;3.00;;
19049;SDS011;9657;45.940;12.840;2023-04-01T15:18:27;4.43;;;3.40;;
19049;SDS011;9657;45.940;12.840;2023-04-01T15:21:13;3.67;;;3.10;;
19049;SDS011;9657;45.940;12.840;2023-04-01T15:23:56;3.67;;;2.80;;
19049;SDS011;9657;45.940;12.840;2023-04-01T15:26:30;5.17;;;2.77;;
19049;SDS011;9657;45.940;12.840;2023-04-01T15:29:23;4.87;;;3.20;;
19049;SDS011;9657;45.940;12.840;2023-04-01T15:32:14;4.20;;;2.83;;
19049;SDS011;9657;45.940;12.840;2023-04-01T15:34:45;5.10;;;2.90;;
19049;SDS011;9657;45.940;12.840;2023-04-01T15:37:21;3.37;;;2.70;;
19049;SDS011;9657;45.940;12.840;2023-04-01T15:39:57;5.37;;;3.20;;
19049;SDS011;9657;45.940;12.840;2023-04-01T15:42:32;5.07;;;3.00;;
19049;SDS011;9657;45.940;12.840;2023-04-01T15:45:15;2.90;;;2.47;;
19049;SDS011;9657;45.940;12.840;2023-04-01T15:47:50;3.80;;;2.50;;
19049;SDS011;9657;45.940;12.840;2023-04-01T15:50:28;5.43;;;2.63;;
19049;SDS011;9657;45.940;12.840;2023-04-01T15:53:11;5.07;;;2.57;;
19049;SDS011;9657;45.940;12.840;2023-04-01T15:55:55;3.20;;;2.90;;
19049;SDS011;9657;45.940;12.840;2023-04-01T15:58:35;3.47;;;2.77;;
19049;SDS011;9657;45.940;12.840;2023-04-01T16:01:15;3.73;;;2.40;;
19049;SDS011;9657;45.940;12.840;2023-04-01T16:03:54;3.20;;;2.73;;
19049;SDS011;9657;45.940;12.840;2023-04-01T16:12:16;3.73;;;2.07;;
19049;SDS011;9657;45.940;12.840;2023-04-01T16:14:51;2.80;;;2.23;;
19049;SDS011;9657;45.940;12.840;2023-04-01T16:17:35;5.30;;;2.77;;
19049;SDS011;9657;45.940;12.840;2023-04-01T16:20:17;3.10;;;2.50;;
19049;SDS011;9657;45.940;12.840;2023-04-01T16:22:49;3.13;;;2.73;;
19049;SDS011;9657;45.940;12.840;2023-04-01T16:25:25;4.43;;;2.90;;
19049;SDS011;9657;45.940;12.840;2023-04-01T16:28:00;4.93;;;3.13;;
19049;SDS011;9657;45.940;12.840;2023-04-01T16:30:40;7.20;;;3.40;;
19049;SDS011;9657;45.940;12.840;2023-04-01T16:33:12;4.67;;;3.80;;
19049;SDS011;9657;45.940;12.840;2023-04-01T16:35:44;5.50;;;3.63;;
19049;SDS011;9657;45.940;12.840;2023-04-01T16:38:16;4.63;;;3.90;;
19049;SDS011;9657;45.940;12.840;2023-04-01T16:40:52;4.17;;;3.70;;
19049;SDS011;9657;45.940;12.840;2023-04-01T16:43:28;6.33;;;4.60;;
19049;SDS011;9657;45.940;12.840;2023-04-01T16:46:13;8.43;;;4.87;;
19049;SDS011;9657;45.940;12.840;2023-04-01T16:48:59;5.80;;;4.10;;
19049;SDS011;9657;45.940;12.840;2023-04-01T16:51:36;6.70;;;4.20;;
19049;SDS011;9657;45.940;12.840;2023-04-01T16:54:12;5.63;;;4.30;;
19049;SDS011;9657;45.940;12.840;2023-04-01T16:56:45;7.20;;;4.50;;
19049;SDS011;9657;45.940;12.840;2023-04-01T16:59:18;8.03;;;5.07;;
19049;SDS011;9657;45.940;12.840;2023-04-01T17:01:52;6.17;;;4.93;;